Time;durP1;ratioP1;P1;durP2;ratioP2;P2;SDS_P1;SDS_P2;PMS_P1;PMS_P2;Temp;Humidity;BMP_temperature;BMP_pressure;BME280_temperature;BME280_humidity;BME280_pressure;Samples;Min_cycle;Max_cycle;Signal;HPM_P1;HPM_P2
2022/03/30 00:00:15;;;;;;;;;;;;;;;187.52;0.00;60892.56;4690772;29;19947;-89
2022/03/30 00:02:54;;;;;;;;;;;;;;;11.81;0.00;60892.56;4694738;29;19920;-89
2022/03/30 00:05:33;;;;;;;;;;;;;;;11.80;0.00;60892.56;4677941;29;19920;-88
2022/03/30 00:08:12;;;;;;;;;;;;;;;15.88;0.00;60892.56;4688539;29;19920;-89
2022/03/30 00:10:51;;;;;;;;;;;;;;;-145.06;0.00;60892.56;4689868;29;20010;-89
2022/03/30 00:13:30;;;;;;;;;;;;;;;187.52;0.00;60892.56;4689421;29;20256;-89
2022/03/30 00:16:10;;;;;;;;;;;;;;;21.08;0.00;60892.56;4689509;29;19999;-89
2022/03/30 00:18:49;;;;;;;;;;;;;;;11.69;0.00;60892.56;4688868;29;19916;-89
2022/03/30 00:21:28;;;;;;;;;;;;;;;11.68;0.00;60892.56;4690061;29;19912;-88
2022/03/30 00:24:07;;;;;;;;;;;;;;;-145.06;0.00;60892.56;4689820;29;20011;-88
2022/03/30 00:26:46;;;;;;;;;;;;;;;-145.06;0.00;60892.56;4689945;29;19916;-88
2022/03/30 00:29:26;;;;;;;;;;;;;;;-145.06;0.00;60892.56;4689598;29;19916;-88
2022/03/30 00:32:05;;;;;;;;;;;;;;;-145.06;0.00;60892.56;4690078;29;19924;-88
2022/03/30 00:34:44;;;;;;;;;;;;;;;-145.06;0.00;60892.56;4689035;29;19920;-90
2022/03/30 00:37:23;;;;;;;;;;;;;;;-145.06;0.00;60892.56;4681834;29;19998;-89
2022/03/30 00:40:04;;;;;;;;;;;;;;;-145.06;0.00;60892.56;4689610;29;20275;-88
2022/03/30 00:42:43;;;;;;;;;;;;;;;-145.06;0.00;60892.56;4689325;29;19912;-88
2022/03/30 00:45:23;;;;;;;;;;;;;;;-145.06;0.00;60892.56;4689678;29;19920;-88
2022/03/30 00:48:02;;;;;;;;;;;;;;;-145.06;0.00;60892.56;4688570;29;19912;-88
2022/03/30 00:50:41;;;;;;;;;;;;;;;-145.06;0.00;60892.56;4684554;29;20010;-88
2022/03/30 00:53:20;;;;;;;;;;;;;;;-145.06;0.00;60892.56;4688316;29;20542;-88
2022/03/30 00:56:00;;;;;;;;;;;;;;;-145.06;0.00;60892.56;4694269;29;19920;-88
2022/03/30 00:58:39;;;;;;;;;;;;;;;-145.06;0.00;60892.56;4690381;29;20259;-88
2022/03/30 01:01:19;;;;;;;;;;;;;;;-145.06;0.00;60892.56;4679195;29;20350;-89
2022/03/30 01:03:58;;;;;;;;;;;;;;;-145.06;0.00;60892.56;4688654;29;19919;-89
2022/03/30 01:06:37;;;;;;;;;;;;;;;-145.06;0.00;60892.56;4684390;29;19956;-89
2022/03/30 01:09:16;;;;;;;;;;;;;;;-145.06;0.00;60892.56;4686621;29;19916;-88
2022/03/30 01:11:55;;;;;;;;;;;;;;;-145.06;0.00;60892.56;4689659;29;20374;-89
2022/03/30 01:14:35;;;;;;;;;;;;;;;-145.06;0.00;60892.56;4688726;29;19959;-88
2022/03/30 01:17:14;;;;;;;;;;;;;;;-145.06;0.00;60892.56;4680096;29;20260;-88
2022/03/30 01:19:53;;;;;;;;;;;;;;;-145.06;0.00;60892.56;4685337;29;20382;-89
2022/03/30 01:22:33;;;;;;;;;;;;;;;-145.06;0.00;60892.56;4688132;29;19916;-87
2022/03/30 01:25:12;;;;;;;;;;;;;;;-145.06;0.00;60892.56;4684480;29;19924;-88
2022/03/30 01:27:51;;;;;;;;;;;;;;;-145.06;0.00;60892.56;4690677;29;19920;-87
2022/03/30 01:33:28;;;;;;;;;;;;;;;-145.06;0.00;60892.56;4697664;29;19975;-87
2022/03/30 01:36:07;;;;;;;;;;;;;;;-145.06;0.00;60892.56;4690629;29;19955;-86
2022/03/30 01:38:46;;;;;;;;;;;;;;;-145.06;0.00;60892.56;4698849;29;19912;-89
2022/03/30 01:41:25;;;;;;;;;;;;;;;-145.06;0.00;60892.56;4689077;29;19963;-87
2022/03/30 01:44:04;;;;;;;;;;;;;;;-145.06;0.00;60892.56;4689773;29;19920;-88
2022/03/30 01:46:43;;;;;;;;;;;;;;;-145.06;0.00;60892.56;4691645;29;19916;-86
2022/03/30 01:49:22;;;;;;;;;;;;;;;-145.06;0.00;60892.56;4691122;29;19967;-88
2022/03/30 01:52:01;;;;;;;;;;;;;;;-145.06;0.00;60892.56;4695859;29;19919;-86
2022/03/30 01:54:40;;;;;;;;;;;;;;;-145.06;0.00;60892.56;4691658;29;19920;-87
2022/03/30 01:57:19;;;;;;;;;;;;;;;-145.06;0.00;60892.56;4698980;29;19912;-87
2022/03/30 01:59:58;;;;;;;;;;;;;;;-145.06;0.00;60892.56;4691003;29;19920;-86
2022/03/30 02:02:38;;;;;;;;;;;;;;;-145.06;0.00;60892.56;4698784;29;19912;-87
2022/03/30 02:05:18;;;;;;;;;;;;;;;-145.06;0.00;60892.56;4684366;29;19928;-87
2022/03/30 02:07:57;;;;;;;;;;;;;;;-145.06;0.00;60892.56;4690889;29;19959;-87
2022/03/30 02:10:38;;;;;;;;;;;;;;;-145.06;0.00;60892.56;4686063;29;19960;-87
2022/03/30 02:13:16;;;;;;;;;;;;;;;-145.06;0.00;60892.56;4691293;29;19916;-87
2022/03/30 02:15:56;;;;;;;;;;;;;;;-145.06;0.00;60892.56;4688618;29;20730;-87
2022/03/30 02:18:35;;;;;;;;;;;;;;;-145.06;0.00;60892.56;4678166;29;19920;-87
2022/03/30 02:21:15;;;;;;;;;;;;;;;-145.06;0.00;60892.56;4685121;29;19963;-87
2022/03/30 02:23:54;;;;;;;;;;;;;;;-145.06;0.00;60892.56;4690847;29;19959;-87
2022/03/30 02:26:33;;;;;;;;;;;;;;;-145.06;0.00;60892.56;4685430;29;19920;-87
2022/03/30 02:29:13;;;;;;;;;;;;;;;-145.06;0.00;60892.56;4697532;29;20367;-86
2022/03/30 02:31:52;;;;;;;;;;;;;;;-145.06;0.00;60892.56;4688521;29;19915;-87
2022/03/30 02:34:31;;;;;;;;;;;;;;;-145.06;0.00;60892.56;4690395;29;19954;-87
2022/03/30 02:37:11;;;;;;;;;;;;;;;-145.06;0.00;60892.56;4691174;29;19920;-87
2022/03/30 02:39:49;;;;;;;;;;;;;;;-145.06;0.00;60892.56;4689378;29;19920;-87
2022/03/30 02:42:28;;;;;;;;;;;;;;;-145.06;0.00;60892.56;4691081;29;19916;-87
2022/03/30 02:45:07;;;;;;;;;;;;;;;-145.06;0.00;60892.56;4690400;29;20382;-86
2022/03/30 02:50:45;;;;;;;;;;;;;;;-145.06;0.00;60892.56;4696224;29;19920;-87
2022/03/30 02:53:24;;;;;;;;;;;;;;;-145.06;0.00;60892.56;4691609;29;19912;-87
2022/03/30 02:56:03;;;;;;;;;;;;;;;-145.06;0.00;60892.56;4684766;29;20532;-86
2022/03/30 02:58:43;;;;;;;;;;;;;;;-145.06;0.00;60892.56;4696986;29;19916;-85
2022/03/30 03:01:21;;;;;;;;;;;;;;;-145.06;0.00;60892.56;4690043;29;19920;-85
2022/03/30 03:04:00;;;;;;;;;;;;;;;-145.06;0.00;60892.56;4690391;29;19920;-86
2022/03/30 03:06:39;;;;;;;;;;;;;;;187.52;0.00;60892.56;4696674;29;19920;-86
2022/03/30 03:09:18;;;;;;;;;;;;;;;187.52;0.00;60892.56;4694328;29;19916;-86
2022/03/30 03:11:57;;;;;;;;;;;;;;;21.08;0.00;60892.56;4682477;29;20018;-87
2022/03/30 03:14:36;;;;;;;;;;;;;;;187.52;0.00;60892.56;4690278;29;20002;-86
2022/03/30 03:17:15;;;;;;;;;;;;;;;-145.06;0.00;60892.56;4696813;29;19916;-86
2022/03/30 03:19:54;;;;;;;;;;;;;;;10.68;0.00;60892.56;4683610;29;20393;-87
2022/03/30 03:22:33;;;;;;;;;;;;;;;10.46;0.00;60892.56;4679491;29;19924;-86
2022/03/30 03:25:13;;;;;;;;;;;;;;;10.48;0.00;60892.56;4688883;29;19919;-86
2022/03/30 03:27:52;;;;;;;;;;;;;;;-145.06;0.00;60892.56;4692291;29;19912;-87
2022/03/30 03:30:31;;;;;;;;;;;;;;;10.44;0.00;60892.56;4685877;29;19917;-87
2022/03/30 03:33:10;;;;;;;;;;;;;;;10.44;0.00;60892.56;4691170;29;20259;-86
2022/03/30 03:35:49;;;;;;;;;;;;;;;10.52;0.00;60892.56;4694329;29;19923;-86
2022/03/30 03:38:28;;;;;;;;;;;;;;;-145.06;0.00;60892.56;4684833;29;19955;-86
2022/03/30 03:41:07;;;;;;;;;;;;;;;-145.06;0.00;60892.56;4688964;29;19959;-87
2022/03/30 03:43:46;;;;;;;;;;;;;;;-145.06;0.00;60892.56;4689879;29;19912;-86
2022/03/30 03:46:25;;;;;;;;;;;;;;;-145.06;0.00;60892.56;4693854;29;19928;-87
2022/03/30 03:49:05;;;;;;;;;;;;;;;-145.06;0.00;60892.56;4689759;29;19916;-87
2022/03/30 03:51:44;;;;;;;;;;;;;;;-145.06;0.00;60892.56;4689340;29;19967;-86
2022/03/30 03:54:23;;;;;;;;;;;;;;;-145.06;0.00;60892.56;4692574;29;19916;-87
2022/03/30 03:57:02;;;;;;;;;;;;;;;-145.06;0.00;60892.56;4696339;29;19955;-85
2022/03/30 03:59:41;;;;;;;;;;;;;;;-145.06;0.00;60892.56;4689258;29;19920;-87
2022/03/30 04:02:20;;;;;;;;;;;;;;;-145.06;0.00;60892.56;4689292;29;19920;-87
2022/03/30 04:04:59;;;;;;;;;;;;;;;-145.06;0.00;60892.56;4688472;29;19916;-86
2022/03/30 04:07:38;;;;;;;;;;;;;;;-145.06;0.00;60892.56;4689453;29;19920;-86
2022/03/30 04:10:18;;;;;;;;;;;;;;;-145.06;0.00;60892.56;4683184;29;19959;-86
2022/03/30 04:12:56;;;;;;;;;;;;;;;-145.06;0.00;60892.56;4688511;29;19920;-87
2022/03/30 04:15:37;;;;;;;;;;;;;;;-145.06;0.00;60892.56;4703181;29;19924;-87
2022/03/30 04:18:15;;;;;;;;;;;;;;;-145.06;0.00;60892.56;4688469;29;19920;-86
2022/03/30 04:20:55;;;;;;;;;;;;;;;-145.06;0.00;60892.56;4688168;29;19923;-86
2022/03/30 04:23:34;;;;;;;;;;;;;;;-145.06;0.00;60892.56;4686703;29;19971;-87
2022/03/30 04:26:13;;;;;;;;;;;;;;;-145.06;0.00;60892.56;4684949;29;20363;-87
2022/03/30 04:28:51;;;;;;;;;;;;;;;-145.06;0.00;60892.56;4685576;29;19919;-88
2022/03/30 04:31:31;;;;;;;;;;;;;;;-145.06;0.00;60892.56;4695965;29;19959;-88
2022/03/30 04:34:10;;;;;;;;;;;;;;;-145.06;0.00;60892.56;4685575;29;20324;-87
2022/03/30 04:36:49;;;;;;;;;;;;;;;-145.06;0.00;60892.56;4686900;29;19963;-87
2022/03/30 04:39:28;;;;;;;;;;;;;;;-145.06;0.00;60892.56;4684732;29;19920;-87
2022/03/30 04:42:07;;;;;;;;;;;;;;;-145.06;0.00;60892.56;4687858;29;19963;-86
2022/03/30 04:44:47;;;;;;;;;;;;;;;-145.06;0.00;60892.56;4690292;29;20378;-86
2022/03/30 04:47:26;;;;;;;;;;;;;;;-145.06;0.00;60892.56;4685481;29;19924;-87
2022/03/30 04:50:05;;;;;;;;;;;;;;;-145.06;0.00;60892.56;4687776;29;20395;-87
2022/03/30 04:52:44;;;;;;;;;;;;;;;-145.06;0.00;60892.56;4686006;29;19999;-87
2022/03/30 04:55:23;;;;;;;;;;;;;;;-145.06;0.00;60892.56;4686768;29;20010;-87
2022/03/30 04:58:03;;;;;;;;;;;;;;;-145.06;0.00;60892.56;4693284;29;20006;-86
2022/03/30 05:00:41;;;;;;;;;;;;;;;-145.06;0.00;60892.56;4687141;29;19999;-85
2022/03/30 05:03:20;;;;;;;;;;;;;;;-145.06;0.00;60892.56;4698834;29;20372;-86
2022/03/30 05:06:02;;;;;;;;;;;;;;;-145.06;0.00;60892.56;4694644;29;19920;-87
2022/03/30 05:08:41;;;;;;;;;;;;;;;-145.06;0.00;60892.56;4689416;29;19916;-87
2022/03/30 05:11:20;;;;;;;;;;;;;;;-145.06;0.00;60892.56;4692863;29;19920;-87
2022/03/30 05:13:59;;;;;;;;;;;;;;;-145.06;0.00;60892.56;4693072;29;19916;-87
2022/03/30 05:16:38;;;;;;;;;;;;;;;-145.06;0.00;60892.56;4690875;29;19915;-87
2022/03/30 05:19:18;;;;;;;;;;;;;;;-145.06;0.00;60892.56;4693068;29;20352;-87
2022/03/30 05:21:57;;;;;;;;;;;;;;;-145.06;0.00;60892.56;4699856;29;20256;-87
2022/03/30 05:24:37;;;;;;;;;;;;;;;-145.06;0.00;60892.56;4688656;29;19916;-87
2022/03/30 05:27:15;;;;;;;;;;;;;;;-145.06;0.00;60892.56;4700455;29;19923;-87
2022/03/30 05:29:54;;;;;;;;;;;;;;;-145.06;0.00;60892.56;4691859;29;19920;-86
2022/03/30 05:32:34;;;;;;;;;;;;;;;-145.06;0.00;60892.56;4690754;29;19916;-86
2022/03/30 05:35:13;;;;;;;;;;;;;;;-145.06;0.00;60892.56;4691313;29;19916;-87
2022/03/30 05:37:52;;;;;;;;;;;;;;;-145.06;0.00;60892.56;4699339;29;19963;-87
2022/03/30 05:40:31;;;;;;;;;;;;;;;-145.06;0.00;60892.56;4694264;29;19916;-87
2022/03/30 05:43:10;;;;;;;;;;;;;;;-145.06;0.00;60892.56;4701084;29;19951;-86
2022/03/30 05:45:49;;;;;;;;;;;;;;;-145.06;0.00;60892.56;4690355;29;20011;-87
2022/03/30 05:48:28;;;;;;;;;;;;;;;-145.06;0.00;60892.56;4695995;29;20011;-86
2022/03/30 05:51:07;;;;;;;;;;;;;;;-145.06;0.00;60892.56;4691811;29;19915;-87
2022/03/30 05:53:47;;;;;;;;;;;;;;;-145.06;0.00;60892.56;4697036;29;19920;-86
2022/03/30 05:59:24;;;;;;;;;;;;;;;-145.06;0.00;60892.56;4692498;29;19920;-86
2022/03/30 06:02:04;;;;;;;;;;;;;;;-145.06;0.00;60892.56;4693397;29;20326;-86
2022/03/30 06:04:45;;;;;;;;;;;;;;;-145.06;0.00;60892.56;4692126;29;19916;-87
2022/03/30 06:07:24;;;;;;;;;;;;;;;-145.06;0.00;60892.56;4699706;29;19975;-87
2022/03/30 06:10:04;;;;;;;;;;;;;;;-145.06;0.00;60892.56;4688253;29;19916;-88
2022/03/30 06:12:43;;;;;;;;;;;;;;;-145.06;0.00;60892.56;4693634;29;19943;-87
2022/03/30 06:15:23;;;;;;;;;;;;;;;-145.06;0.00;60892.56;4688415;29;20383;-87
2022/03/30 06:18:03;;;;;;;;;;;;;;;-145.06;0.00;60892.56;4687484;29;19924;-87
2022/03/30 06:20:42;;;;;;;;;;;;;;;-145.06;0.00;60892.56;4686209;29;19916;-87
2022/03/30 06:23:21;;;;;;;;;;;;;;;-145.06;0.00;60892.56;4690080;29;20309;-87
2022/03/30 06:26:01;;;;;;;;;;;;;;;-145.06;0.00;60892.56;4692661;29;19924;-86
2022/03/30 06:28:41;;;;;;;;;;;;;;;-145.06;0.00;60892.56;4688454;29;19920;-87
2022/03/30 06:31:20;;;;;;;;;;;;;;;-145.06;0.00;60892.56;4688785;29;20311;-87
2022/03/30 06:33:59;;;;;;;;;;;;;;;-145.06;0.00;60892.56;4693117;29;19967;-87
2022/03/30 06:36:38;;;;;;;;;;;;;;;-145.06;0.00;60892.56;4689694;29;20264;-86
2022/03/30 06:39:17;;;;;;;;;;;;;;;-145.06;0.00;60892.56;4700132;29;19923;-88
2022/03/30 06:41:56;;;;;;;;;;;;;;;-145.06;0.00;60892.56;4690883;29;19916;-87
2022/03/30 06:44:35;;;;;;;;;;;;;;;-145.06;0.00;60892.56;4689076;29;20283;-86
2022/03/30 06:47:14;;;;;;;;;;;;;;;-145.06;0.00;60892.56;4690343;29;19919;-88
2022/03/30 06:49:55;;;;;;;;;;;;;;;-145.06;0.00;60892.56;4689863;29;19916;-87
2022/03/30 06:52:35;;;;;;;;;;;;;;;-145.06;0.00;60892.56;4690603;29;19919;-86
2022/03/30 06:55:14;;;;;;;;;;;;;;;-145.06;0.00;60892.56;4690600;29;19912;-87
2022/03/30 06:57:53;;;;;;;;;;;;;;;-145.06;0.00;60892.56;4690702;29;19916;-87
2022/03/30 07:00:32;;;;;;;;;;;;;;;-145.06;0.00;60892.56;4691564;29;19912;-88
2022/03/30 07:03:11;;;;;;;;;;;;;;;-145.06;0.00;60892.56;4694253;29;19915;-88
2022/03/30 07:05:50;;;;;;;;;;;;;;;-145.06;0.00;60892.56;4690684;29;20006;-88
2022/03/30 07:11:27;;;;;;;;;;;;;;;-145.06;0.00;60892.56;4691868;29;19916;-87
2022/03/30 07:14:06;;;;;;;;;;;;;;;-145.06;0.00;60892.56;4690178;29;19920;-88
2022/03/30 07:16:45;;;;;;;;;;;;;;;-145.06;0.00;60892.56;4689224;29;19920;-87
2022/03/30 07:19:24;;;;;;;;;;;;;;;-145.06;0.00;60892.56;4682719;29;19916;-87
2022/03/30 07:22:03;;;;;;;;;;;;;;;-145.06;0.00;60892.56;4689116;29;19920;-88
2022/03/30 07:24:41;;;;;;;;;;;;;;;-145.06;0.00;60892.56;4688990;29;19920;-87
2022/03/30 07:27:20;;;;;;;;;;;;;;;-145.06;0.00;60892.56;4678218;29;20647;-87
2022/03/30 07:29:59;;;;;;;;;;;;;;;-145.06;0.00;60892.56;4689394;29;20271;-88
2022/03/30 07:32:40;;;;;;;;;;;;;;;-145.06;0.00;60892.56;4686250;29;19916;-88
2022/03/30 07:35:20;;;;;;;;;;;;;;;-145.06;0.00;60892.56;4675176;29;19919;-87
2022/03/30 07:38:00;;;;;;;;;;;;;;;-145.06;0.00;60892.56;4689712;29;20370;-89
2022/03/30 07:40:38;;;;;;;;;;;;;;;-145.06;0.00;60892.56;4694849;29;20268;-89
2022/03/30 07:43:18;;;;;;;;;;;;;;;-145.06;0.00;60892.56;4687824;29;19958;-87
2022/03/30 07:45:57;;;;;;;;;;;;;;;-145.06;0.00;60892.56;4679726;29;19924;-87
2022/03/30 07:48:36;;;;;;;;;;;;;;;-145.06;0.00;60892.56;4689924;29;20100;-89
2022/03/30 07:51:15;;;;;;;;;;;;;;;-145.06;0.00;60892.56;4696766;29;20098;-88
2022/03/30 07:53:54;;;;;;;;;;;;;;;-145.06;0.00;60892.56;4689433;29;19915;-88
2022/03/30 07:56:33;;;;;;;;;;;;;;;-145.06;0.00;60892.56;4679954;29;20252;-89
2022/03/30 07:59:13;;;;;;;;;;;;;;;-145.06;0.00;60892.56;4690284;29;19915;-88
2022/03/30 08:01:54;;;;;;;;;;;;;;;-145.06;0.00;60892.56;4690591;29;19916;-88
2022/03/30 08:04:33;;;;;;;;;;;;;;;-145.06;0.00;60892.56;4690189;29;20307;-88
2022/03/30 08:07:12;;;;;;;;;;;;;;;-145.06;0.00;60892.56;4689478;29;19920;-89
2022/03/30 08:09:50;;;;;;;;;;;;;;;-145.06;0.00;60892.56;4689565;29;20367;-88
2022/03/30 08:12:29;;;;;;;;;;;;;;;-145.06;0.00;60892.56;4690196;29;19947;-89
2022/03/30 08:15:09;;;;;;;;;;;;;;;-145.06;0.00;60892.56;4688943;29;19919;-89
2022/03/30 08:17:50;;;;;;;;;;;;;;;-145.06;0.00;60892.56;4684816;29;19920;-89
2022/03/30 08:23:26;;;;;;;;;;;;;;;-145.06;0.00;60892.56;4689190;29;19916;-89
2022/03/30 08:26:05;;;;;;;;;;;;;;;10.52;0.00;60892.56;4689648;29;19924;-90
2022/03/30 08:28:44;;;;;;;;;;;;;;;-145.06;0.00;60892.56;4690770;29;19950;-89
2022/03/30 08:31:23;;;;;;;;;;;;;;;-145.06;0.00;60892.56;4689756;29;19916;-88
2022/03/30 08:34:02;;;;;;;;;;;;;;;-145.06;0.00;60892.56;4689674;29;19955;-89
2022/03/30 08:36:42;;;;;;;;;;;;;;;-145.06;0.00;60892.56;4690168;29;20363;-89
2022/03/30 08:39:21;;;;;;;;;;;;;;;10.41;0.00;60892.56;4688782;29;19916;-89
2022/03/30 08:42:01;;;;;;;;;;;;;;;10.52;0.00;60892.56;4690060;29;19959;-88
2022/03/30 08:44:41;;;;;;;;;;;;;;;10.55;0.00;60892.56;4690280;29;19915;-89
2022/03/30 08:47:20;;;;;;;;;;;;;;;10.61;0.00;60892.56;4689483;29;19959;-88
2022/03/30 08:49:59;;;;;;;;;;;;;;;10.64;0.00;60892.56;4686901;29;20263;-88
2022/03/30 08:52:38;;;;;;;;;;;;;;;10.68;0.00;60892.56;4689358;29;20311;-89
2022/03/30 08:55:18;;;;;;;;;;;;;;;-145.06;0.00;60892.56;4689347;29;20006;-89
2022/03/30 08:57:56;;;;;;;;;;;;;;;-145.06;0.00;60892.56;4689520;29;19916;-88
2022/03/30 09:00:35;;;;;;;;;;;;;;;-145.06;0.00;60892.56;4685308;29;19924;-89
2022/03/30 09:03:15;;;;;;;;;;;;;;;-145.06;0.00;60892.56;4680185;29;19916;-90
2022/03/30 09:05:54;;;;;;;;;;;;;;;-145.06;0.00;60892.56;4689353;29;19924;-88
2022/03/30 09:08:38;;;;;;;;;;;;;;;-145.06;0.00;60892.56;4690510;29;19991;-89
2022/03/30 09:11:19;;;;;;;;;;;;;;;-145.06;0.00;60892.56;4681581;29;19916;-89
2022/03/30 09:14:02;;;;;;;;;;;;;;;-145.06;0.00;60892.56;4686420;29;19920;-89
2022/03/30 09:16:43;;;;;;;;;;;;;;;-145.06;0.00;60892.56;4696463;29;20491;-89
2022/03/30 09:19:22;;;;;;;;;;;;;;;-145.06;0.00;60892.56;4677672;29;19916;-88
2022/03/30 09:22:02;;;;;;;;;;;;;;;-145.06;0.00;60892.56;4683266;29;19916;-89
2022/03/30 09:24:41;;;;;;;;;;;;;;;-145.06;0.00;60892.56;4692196;29;19916;-90
2022/03/30 09:27:23;;;;;;;;;;;;;;;-145.06;0.00;60892.56;4692788;29;19924;-88
2022/03/30 09:30:03;;;;;;;;;;;;;;;-145.06;0.00;60892.56;4688633;29;19920;-88
2022/03/30 09:32:43;;;;;;;;;;;;;;;-145.06;0.00;60892.56;4687033;29;19963;-88
2022/03/30 09:35:24;;;;;;;;;;;;;;;-145.06;0.00;60892.56;4682303;29;19952;-89
2022/03/30 09:38:08;;;;;;;;;;;;;;;-145.06;0.00;60892.56;4686006;29;19955;-89
2022/03/30 09:40:47;;;;;;;;;;;;;;;-145.06;0.00;60892.56;4683204;29;20479;-88
2022/03/30 09:43:27;;;;;;;;;;;;;;;-145.06;0.00;60892.56;4692262;29;19916;-88
2022/03/30 09:46:06;;;;;;;;;;;;;;;-145.06;0.00;60892.56;4688836;29;19920;-89
2022/03/30 09:48:56;;;;;;;;;;;;;;;-145.06;0.00;60892.56;4686977;29;19920;-88
2022/03/30 09:51:35;;;;;;;;;;;;;;;-145.06;0.00;60892.56;4681412;29;19924;-88
2022/03/30 09:54:14;;;;;;;;;;;;;;;-145.06;0.00;60892.56;4691295;29;19920;-88
2022/03/30 09:56:53;;;;;;;;;;;;;;;-145.06;0.00;60892.56;4692063;29;20284;-88
2022/03/30 09:59:52;;;;;;;;;;;;;;;-145.06;0.00;60892.56;4698446;29;19912;-89
2022/03/30 10:02:40;;;;;;;;;;;;;;;-145.06;0.00;60892.56;4693169;29;19951;-88
2022/03/30 10:05:20;;;;;;;;;;;;;;;-145.06;0.00;60892.56;4691464;29;20712;-88
2022/03/30 10:07:59;;;;;;;;;;;;;;;-145.06;0.00;60892.56;4692001;29;19919;-90
2022/03/30 10:10:38;;;;;;;;;;;;;;;-145.06;0.00;60892.56;4691149;29;19912;-88
2022/03/30 10:13:18;;;;;;;;;;;;;;;-145.06;0.00;60892.56;4691610;29;19920;-88
2022/03/30 10:15:58;;;;;;;;;;;;;;;-145.06;0.00;60892.56;4687536;29;19963;-89
2022/03/30 10:18:37;;;;;;;;;;;;;;;-145.06;0.00;60892.56;4693663;29;20395;-88
2022/03/30 10:21:35;;;;;;;;;;;;;;;-145.06;0.00;60892.56;4690575;29;19951;-88
2022/03/30 10:24:17;;;;;;;;;;;;;;;-145.06;0.00;60892.56;4690783;29;19951;-89
2022/03/30 10:27:04;;;;;;;;;;;;;;;-145.06;0.00;60892.56;4691218;29;19927;-89
2022/03/30 10:29:51;;;;;;;;;;;;;;;13.28;0.00;60892.56;4684578;29;19995;-89
2022/03/30 10:32:34;;;;;;;;;;;;;;;21.08;0.00;60892.56;4699865;29;20251;-88
2022/03/30 10:35:13;;;;;;;;;;;;;;;13.15;0.00;60892.56;4692295;29;20343;-89
2022/03/30 10:37:59;;;;;;;;;;;;;;;13.21;0.00;60892.56;4691654;29;20374;-89
2022/03/30 10:40:38;;;;;;;;;;;;;;;13.28;0.00;60892.56;4687110;29;19967;-89
2022/03/30 10:43:24;;;;;;;;;;;;;;;-145.06;0.00;60892.56;4688186;29;19924;-89
2022/03/30 10:46:04;;;;;;;;;;;;;;;-145.06;0.00;60892.56;4696779;29;20363;-87
2022/03/30 10:48:43;;;;;;;;;;;;;;;-145.06;0.00;60892.56;4686221;29;19915;-88
2022/03/30 10:51:22;;;;;;;;;;;;;;;-145.06;0.00;60892.56;4690950;29;19916;-87
2022/03/30 10:54:01;;;;;;;;;;;;;;;-145.06;0.00;60892.56;4692026;29;20256;-88
2022/03/30 10:56:47;;;;;;;;;;;;;;;-145.06;0.00;60892.56;4699693;29;19916;-87
2022/03/30 10:59:27;;;;;;;;;;;;;;;-145.06;0.00;60892.56;4690314;29;19920;-88
2022/03/30 11:02:13;;;;;;;;;;;;;;;-145.06;0.00;60892.56;4689693;29;19916;-89
2022/03/30 11:05:07;;;;;;;;;;;;;;;-145.06;0.00;60892.56;4693096;29;19915;-88
2022/03/30 11:07:46;;;;;;;;;;;;;;;-145.06;0.00;60892.56;4675615;29;20003;-90
2022/03/30 11:10:29;;;;;;;;;;;;;;;-145.06;0.00;60892.56;4689849;29;19916;-89
2022/03/30 11:13:11;;;;;;;;;;;;;;;-145.06;0.00;60892.56;4684729;29;19927;-88
2022/03/30 11:15:56;;;;;;;;;;;;;;;-145.06;0.00;60892.56;4689078;29;19959;-89
2022/03/30 11:18:52;;;;;;;;;;;;;;;14.38;0.00;60892.56;4683892;29;19925;-89
2022/03/30 11:21:31;;;;;;;;;;;;;;;15.88;0.00;60892.56;4703645;29;19916;-89
2022/03/30 11:24:18;;;;;;;;;;;;;;;14.58;0.00;60892.56;4690520;29;20419;-89
2022/03/30 11:26:57;;;;;;;;;;;;;;;-145.06;0.00;60892.56;4687737;29;19924;-89
2022/03/30 11:29:52;;;;;;;;;;;;;;;-145.06;0.00;60892.56;4690542;29;19916;-89
2022/03/30 11:32:42;;;;;;;;;;;;;;;-145.06;0.00;60892.56;4690867;29;19939;-90
2022/03/30 11:35:24;;;;;;;;;;;;;;;-145.06;0.00;60892.56;4683577;29;20351;-88
2022/03/30 11:38:07;;;;;;;;;;;;;;;-145.06;0.00;60892.56;4680241;29;19916;-89
2022/03/30 11:40:47;;;;;;;;;;;;;;;-145.06;0.00;60892.56;4680373;29;19916;-89
2022/03/30 11:43:26;;;;;;;;;;;;;;;-145.06;0.00;60892.56;4688509;29;20311;-89
2022/03/30 11:46:05;;;;;;;;;;;;;;;-145.06;0.00;60892.56;4690916;29;19932;-89
2022/03/30 11:48:44;;;;;;;;;;;;;;;-145.06;0.00;60892.56;4686610;29;19915;-89
2022/03/30 11:51:25;;;;;;;;;;;;;;;-145.06;0.00;60892.56;4687235;29;20615;-91
2022/03/30 11:54:16;;;;;;;;;;;;;;;-145.06;0.00;60892.56;4690123;29;19952;-90
2022/03/30 11:56:55;;;;;;;;;;;;;;;-145.06;0.00;60892.56;4687772;29;19924;-90
2022/03/30 11:59:34;;;;;;;;;;;;;;;-145.06;0.00;60892.56;4672413;29;20427;-89
2022/03/30 12:02:14;;;;;;;;;;;;;;;-145.06;0.00;60892.56;4689798;29;19916;-90
2022/03/30 12:04:53;;;;;;;;;;;;;;;-145.06;0.00;60892.56;4690128;29;19916;-90
2022/03/30 12:07:33;;;;;;;;;;;;;;;-145.06;0.00;60892.56;4690090;29;20010;-90
2022/03/30 12:10:13;;;;;;;;;;;;;;;-145.06;0.00;60892.56;4689954;29;20331;-89
2022/03/30 12:12:53;;;;;;;;;;;;;;;-145.06;0.00;60892.56;4689988;29;20002;-90
2022/03/30 12:15:31;;;;;;;;;;;;;;;-145.06;0.00;60892.56;4689801;29;19919;-89
2022/03/30 12:18:11;;;;;;;;;;;;;;;-145.06;0.00;60892.56;4689053;29;19952;-89
2022/03/30 12:20:50;;;;;;;;;;;;;;;-145.06;0.00;60892.56;4689123;29;19916;-89
2022/03/30 12:23:29;;;;;;;;;;;;;;;-145.06;0.00;60892.56;4684755;29;20513;-89
2022/03/30 12:26:12;;;;;;;;;;;;;;;-145.06;0.00;60892.56;4674261;29;20363;-89
2022/03/30 12:29:08;;;;;;;;;;;;;;;-145.06;0.00;60892.56;4689873;29;19912;-89
2022/03/30 12:31:51;;;;;;;;;;;;;;;-145.06;0.00;60892.56;4677407;29;19916;-89
2022/03/30 12:34:33;;;;;;;;;;;;;;;-145.06;0.00;60892.56;4689851;29;19916;-89
2022/03/30 12:37:19;;;;;;;;;;;;;;;16.91;0.00;60892.56;4698355;29;19916;-89
2022/03/30 12:40:06;;;;;;;;;;;;;;;-145.06;0.00;60892.56;4699420;29;19912;-90
2022/03/30 12:42:45;;;;;;;;;;;;;;;-145.06;0.00;60892.56;4688396;29;19923;-90
2022/03/30 12:45:23;;;;;;;;;;;;;;;17.00;0.00;60892.56;4679766;29;19920;-90
2022/03/30 12:48:09;;;;;;;;;;;;;;;17.06;0.00;60892.56;4696231;29;19916;-90
2022/03/30 12:50:48;;;;;;;;;;;;;;;17.11;0.00;60892.56;4682845;29;19920;-89
2022/03/30 12:53:35;;;;;;;;;;;;;;;17.12;0.00;60892.56;4687514;29;19916;-90
2022/03/30 12:56:19;;;;;;;;;;;;;;;17.08;0.00;60892.56;4689402;29;20014;-90
2022/03/30 12:59:04;;;;;;;;;;;;;;;17.02;0.00;60892.56;4696642;29;19916;-89
2022/03/30 13:01:46;;;;;;;;;;;;;;;16.97;0.00;60892.56;4682313;29;20378;-89
2022/03/30 13:04:28;;;;;;;;;;;;;;;16.98;0.00;60892.56;4680103;29;19920;-89
2022/03/30 13:07:11;;;;;;;;;;;;;;;16.97;0.00;81616.88;4689764;29;19967;-90
2022/03/30 13:10:11;;;;;;;;;;;;;;;16.91;0.00;60892.56;4684718;29;20366;-89
2022/03/30 13:12:55;;;;;;;;;;;;;;;16.88;0.00;60892.56;4689484;29;19920;-89
2022/03/30 13:15:34;;;;;;;;;;;;;;;-145.06;0.00;60892.56;4686600;29;19916;-91
2022/03/30 13:18:14;;;;;;;;;;;;;;;16.99;0.00;60892.56;4684644;29;20002;-90
2022/03/30 13:21:22;;;;;;;;;;;;;;;17.04;0.00;60892.56;4681594;29;19916;-89
2022/03/30 13:24:14;;;;;;;;;;;;;;;17.07;0.00;60892.56;4686429;29;19916;-89
2022/03/30 13:26:58;;;;;;;;;;;;;;;17.09;0.00;60892.56;4699068;29;19920;-90
2022/03/30 13:29:37;;;;;;;;;;;;;;;17.11;0.00;60892.56;4689132;29;19916;-89
2022/03/30 13:32:17;;;;;;;;;;;;;;;17.13;0.00;60892.56;4691485;29;19924;-90
2022/03/30 13:34:57;;;;;;;;;;;;;;;17.17;0.00;60892.56;4691901;29;19920;-90
2022/03/30 13:37:36;;;;;;;;;;;;;;;-145.06;0.00;60892.56;4692944;29;20430;-90
2022/03/30 13:40:15;;;;;;;;;;;;;;;-145.06;0.00;60892.56;4686618;29;19947;-88
2022/03/30 13:42:54;;;;;;;;;;;;;;;-145.06;0.00;60892.56;4691942;29;19947;-90
2022/03/30 13:45:33;;;;;;;;;;;;;;;-145.06;0.00;60892.56;4691833;29;19916;-90
2022/03/30 13:48:12;;;;;;;;;;;;;;;-145.06;0.00;60892.56;4687455;29;20255;-90
2022/03/30 13:50:51;;;;;;;;;;;;;;;-145.06;0.00;60892.56;4686380;29;19920;-89
2022/03/30 13:53:30;;;;;;;;;;;;;;;-145.06;0.00;60892.56;4688177;29;19916;-91
2022/03/30 13:56:10;;;;;;;;;;;;;;;-145.06;0.00;60892.56;4690640;29;19916;-89
2022/03/30 13:58:53;;;;;;;;;;;;;;;-145.06;0.00;60892.56;4692084;29;19937;-90
2022/03/30 14:01:32;;;;;;;;;;;;;;;-145.06;0.00;60892.56;4685188;29;19920;-89